Time;durP1;ratioP1;P1;durP2;ratioP2;P2;SDS_P1;SDS_P2;PMS_P1;PMS_P2;Temp;Humidity;BMP_temperature;BMP_pressure;BME280_temperature;BME280_humidity;BME280_pressure;Samples;Min_cycle;Max_cycle;Signal;HPM_P1;HPM_P2
2022/02/10 00:06:34;;;;;;;10.97;6.83;;;7.80;99.90;;;;;;5057974;28;20201;-68
2022/02/10 00:14:59;;;;;;;9.37;7.30;;;7.80;99.90;;;;;;5065908;28;20730;-66
2022/02/10 00:17:35;;;;;;;8.83;6.73;;;7.90;99.90;;;;;;5066244;28;20252;-67
2022/02/10 00:20:14;;;;;;;9.00;7.80;;;7.90;99.90;;;;;;5071811;28;20723;-67
2022/02/10 00:23:03;;;;;;;9.60;7.37;;;7.90;99.90;;;;;;5073231;28;20205;-68
2022/02/10 00:36:28;;;;;;;11.03;8.33;;;7.80;99.90;;;;;;5050260;28;20229;-70
2022/02/10 00:39:03;;;;;;;10.77;7.50;;;7.90;99.90;;;;;;5071621;28;20635;-67
2022/02/10 00:41:30;;;;;;;8.40;6.97;;;7.80;99.90;;;;;;5071076;28;20220;-67
2022/02/10 00:43:58;;;;;;;11.13;7.80;;;7.90;99.90;;;;;;5067345;28;20211;-68
2022/02/10 00:46:25;;;;;;;9.97;7.80;;;7.90;99.90;;;;;;5062564;28;20654;-67
2022/02/10 00:48:52;;;;;;;9.73;7.17;;;7.80;99.90;;;;;;5070213;28;20228;-68
2022/02/10 00:51:20;;;;;;;10.47;7.87;;;7.80;99.90;;;;;;5072213;28;20211;-68
2022/02/10 00:53:47;;;;;;;9.17;7.03;;;7.80;99.90;;;;;;5070867;28;20278;-67
2022/02/10 00:56:14;;;;;;;10.57;7.67;;;7.90;99.90;;;;;;5072129;28;20209;-67
2022/02/10 00:58:45;;;;;;;9.73;7.67;;;7.90;99.90;;;;;;5074303;28;20221;-68
2022/02/10 01:31:26;;;;;;;9.73;7.47;;;7.80;99.90;;;;;;5070616;28;20204;-67
2022/02/10 01:33:54;;;;;;;11.83;8.33;;;7.80;99.90;;;;;;5084304;28;20221;-68
2022/02/10 01:36:21;;;;;;;9.80;8.07;;;7.80;99.90;;;;;;5074327;28;20262;-69
2022/02/10 01:38:48;;;;;;;9.10;7.30;;;7.80;99.90;;;;;;5079781;28;20320;-68
2022/02/10 02:03:21;;;;;;;9.97;8.20;;;7.70;99.90;;;;;;5070568;28;20565;-68
2022/02/10 02:05:55;;;;;;;11.27;8.50;;;7.70;99.90;;;;;;5069846;28;20232;-68
2022/02/10 02:08:25;;;;;;;11.53;9.23;;;7.70;99.90;;;;;;5074139;28;20193;-67
2022/02/10 02:10:52;;;;;;;9.53;8.47;;;7.70;99.90;;;;;;5072180;28;20220;-68
2022/02/10 02:13:19;;;;;;;11.93;9.37;;;7.70;99.90;;;;;;5073800;28;20219;-67
2022/02/10 02:15:46;;;;;;;11.67;9.23;;;7.70;99.90;;;;;;5070684;28;20205;-68
2022/02/10 02:18:13;;;;;;;13.10;9.50;;;7.70;99.90;;;;;;5074770;28;20235;-67
2022/02/10 02:20:40;;;;;;;13.00;9.97;;;7.70;99.90;;;;;;5064152;28;20233;-68
2022/02/10 02:23:08;;;;;;;10.77;8.63;;;7.70;99.90;;;;;;5074966;28;20207;-67
2022/02/10 02:25:35;;;;;;;13.77;9.37;;;7.70;99.90;;;;;;5073319;28;20682;-68
2022/02/10 02:28:07;;;;;;;12.57;9.27;;;7.70;99.90;;;;;;5074736;28;20571;-68
2022/02/10 02:30:39;;;;;;;11.80;9.50;;;7.70;99.90;;;;;;5070611;28;20650;-68
2022/02/10 02:36:39;;;;;;;10.43;9.13;;;7.70;99.90;;;;;;5070825;28;20241;-68
2022/02/10 03:06:33;;;;;;;14.27;9.80;;;7.70;99.90;;;;;;5064176;28;20228;-68
2022/02/10 03:09:05;;;;;;;12.13;9.10;;;7.70;99.90;;;;;;5077253;28;20205;-68
2022/02/10 03:11:35;;;;;;;13.63;10.20;;;7.70;99.90;;;;;;5072347;28;20208;-67
2022/02/10 03:14:07;;;;;;;11.43;9.30;;;7.70;99.90;;;;;;5066145;28;20280;-68
2022/02/10 03:16:59;;;;;;;12.07;9.63;;;7.70;99.90;;;;;;5068267;28;20202;-68
2022/02/10 03:19:42;;;;;;;13.10;10.27;;;7.70;99.90;;;;;;5072948;28;20685;-67
2022/02/10 03:22:25;;;;;;;12.60;9.30;;;7.70;99.90;;;;;;5061605;28;20222;-67
2022/02/10 04:00:59;;;;;;;12.83;10.27;;;7.70;99.90;;;;;;5071457;28;20215;-68
2022/02/10 04:06:28;;;;;;;14.83;10.40;;;7.70;99.90;;;;;;5087812;28;20588;-69
2022/02/10 04:11:56;;;;;;;11.10;9.77;;;7.70;99.90;;;;;;5048686;28;20201;-69
2022/02/10 04:14:28;;;;;;;14.67;9.83;;;7.70;99.90;;;;;;5071465;28;20209;-68
2022/02/10 04:17:17;;;;;;;11.97;10.10;;;7.70;99.90;;;;;;5070406;28;20252;-68
2022/02/10 04:20:09;;;;;;;12.13;9.53;;;7.70;99.90;;;;;;5071225;28;20682;-68
2022/02/10 04:22:46;;;;;;;11.97;9.83;;;7.70;99.90;;;;;;5063591;28;20201;-68
2022/02/10 04:25:34;;;;;;;12.13;10.20;;;7.70;99.90;;;;;;5071520;28;20254;-68
2022/02/10 04:28:14;;;;;;;13.30;9.50;;;7.70;99.90;;;;;;5071661;28;20220;-68
2022/02/10 04:31:08;;;;;;;12.00;9.93;;;7.70;99.90;;;;;;5071010;28;20266;-68
2022/02/10 04:55:50;;;;;;;15.67;10.57;;;7.70;99.90;;;;;;5063837;28;20652;-68
2022/02/10 04:58:41;;;;;;;13.63;10.23;;;7.70;99.90;;;;;;5072212;28;20681;-68
2022/02/10 05:01:21;;;;;;;15.57;10.93;;;7.70;99.90;;;;;;5070491;28;20660;-67
2022/02/10 05:07:21;;;;;;;13.60;10.73;;;7.60;99.90;;;;;;5027217;28;20559;-68
2022/02/10 05:18:32;;;;;;;13.87;11.13;;;7.60;99.90;;;;;;5062283;28;20263;-68
2022/02/10 05:21:12;;;;;;;12.23;10.13;;;7.60;99.90;;;;;;5064026;28;20229;-68
2022/02/10 05:24:07;;;;;;;14.00;10.30;;;7.60;99.90;;;;;;5058799;28;20223;-68
2022/02/10 05:32:34;;;;;;;13.73;10.03;;;7.60;99.90;;;;;;5069532;28;20661;-68
2022/02/10 05:35:14;;;;;;;15.20;10.47;;;7.60;99.90;;;;;;5062026;28;20962;-69
2022/02/10 05:37:42;;;;;;;13.90;10.50;;;7.60;99.90;;;;;;5068173;28;20232;-68
2022/02/10 05:40:18;;;;;;;14.10;10.37;;;7.80;99.90;;;;;;5066614;28;20226;-70
2022/02/10 05:43:20;;;;;;;12.40;10.20;;;7.70;99.90;;;;;;5078219;28;20710;-68
2022/02/10 05:45:49;;;;;;;14.63;10.00;;;7.70;99.90;;;;;;5073330;28;20266;-68
2022/02/10 05:48:38;;;;;;;14.60;11.00;;;7.70;99.90;;;;;;5080255;28;20209;-69
2022/02/10 05:51:47;;;;;;;15.00;10.30;;;7.70;99.90;;;;;;5078553;28;20323;-68
2022/02/10 05:54:33;;;;;;;14.50;10.23;;;7.70;99.90;;;;;;5075802;28;20201;-68
2022/02/10 05:57:13;;;;;;;14.93;10.50;;;7.70;99.90;;;;;;5066820;28;20724;-68
2022/02/10 06:02:46;;;;;;;14.53;10.60;;;7.70;99.90;;;;;;5071446;28;20205;-69
2022/02/10 06:49:53;;;;;;;14.10;10.30;;;7.70;99.90;;;;;;5026829;28;20722;-70
2022/02/10 06:52:26;;;;;;;14.63;10.50;;;7.80;99.90;;;;;;5020393;28;20203;-71
2022/02/10 06:55:03;;;;;;;13.77;9.83;;;7.80;99.90;;;;;;5059265;28;20342;-71
2022/02/10 06:58:09;;;;;;;13.40;9.67;;;7.80;99.90;;;;;;5083359;28;20205;-71
2022/02/10 07:03:51;;;;;;;14.57;10.40;;;7.80;99.90;;;;;;5072238;28;20204;-70
2022/02/10 07:06:42;;;;;;;14.40;10.60;;;7.70;99.90;;;;;;5073043;28;20217;-70
2022/02/10 07:09:40;;;;;;;16.43;11.17;;;7.80;99.90;;;;;;5069615;28;20227;-69
2022/02/10 07:12:27;;;;;;;12.50;9.53;;;7.80;99.90;;;;;;5082955;28;20207;-71
2022/02/10 07:15:09;;;;;;;13.80;10.20;;;7.80;99.90;;;;;;5067385;28;20213;-72
2022/02/10 07:54:07;;;;;;;16.97;10.40;;;7.90;99.90;;;;;;5066945;28;20247;-73
2022/02/10 07:59:44;;;;;;;16.67;11.50;;;7.90;99.90;;;;;;5061898;28;20260;-72
2022/02/10 08:18:01;;;;;;;16.10;11.20;;;7.90;99.90;;;;;;5075129;28;21447;-73
2022/02/10 08:57:49;;;;;;;18.97;14.27;;;8.10;99.90;;;;;;5020352;28;20199;-71
2022/02/10 09:00:55;;;;;;;21.00;13.80;;;8.10;99.90;;;;;;5057898;28;20221;-71
2022/02/10 09:03:37;;;;;;;21.53;13.03;;;8.10;99.90;;;;;;5070860;28;20201;-71
2022/02/10 09:06:12;;;;;;;21.33;14.80;;;8.10;99.90;;;;;;5073491;28;20665;-73
2022/02/10 09:09:13;;;;;;;18.97;14.00;;;8.10;99.90;;;;;;5071124;28;20292;-72
2022/02/10 09:56:09;;;;;;;20.20;12.67;;;8.40;99.90;;;;;;5078335;28;20230;-70
2022/02/10 09:58:57;;;;;;;17.93;13.23;;;8.40;99.90;;;;;;5071114;28;20622;-70
2022/02/10 10:01:29;;;;;;;19.73;13.63;;;8.40;99.90;;;;;;5078918;28;20204;-71
2022/02/10 10:04:03;;;;;;;22.33;14.30;;;8.40;99.90;;;;;;5066760;28;20197;-70
2022/02/10 10:06:52;;;;;;;20.47;15.10;;;8.40;99.90;;;;;;5076959;28;20236;-69
2022/02/10 10:09:36;;;;;;;20.97;14.13;;;8.50;99.90;;;;;;5073821;28;20208;-71
2022/02/10 10:12:43;;;;;;;19.43;13.43;;;8.50;99.90;;;;;;5073516;28;20693;-71
2022/02/10 10:21:02;;;;;;;21.53;13.50;;;8.60;99.90;;;;;;5068615;28;20583;-72
2022/02/10 10:52:25;;;;;;;14.40;11.33;;;9.00;99.90;;;;;;5067546;28;20255;-72
2022/02/10 10:55:05;;;;;;;15.93;11.73;;;9.00;99.90;;;;;;5067120;28;20543;-71
2022/02/10 10:57:39;;;;;;;15.33;10.97;;;9.00;99.90;;;;;;5075393;28;20213;-70
2022/02/10 11:00:28;;;;;;;15.17;11.13;;;9.00;99.90;;;;;;5079008;28;20224;-70
2022/02/10 11:37:03;;;;;;;13.70;9.90;;;9.00;99.90;;;;;;5070669;28;20240;-73
2022/02/10 11:39:39;;;;;;;14.07;9.03;;;9.00;99.90;;;;;;5071465;28;20254;-71
2022/02/10 11:42:37;;;;;;;11.40;8.77;;;9.10;99.90;;;;;;5079928;28;20205;-70
2022/02/10 14:09:46;;;;;;;11.77;9.40;;;9.20;99.90;;;;;;5072396;28;20685;-70
2022/02/10 14:15:03;;;;;;;11.83;9.07;;;9.20;99.90;;;;;;5073912;28;20197;-71
2022/02/10 14:17:36;;;;;;;10.27;8.50;;;9.20;99.90;;;;;;5074793;28;20277;-71
2022/02/10 14:20:21;;;;;;;12.10;8.17;;;9.20;99.90;;;;;;5070360;28;20220;-71
2022/02/10 14:23:03;;;;;;;10.97;7.97;;;9.20;99.90;;;;;;5076678;28;20296;-71
2022/02/10 14:25:41;;;;;;;10.83;7.20;;;9.20;99.90;;;;;;5075377;28;20239;-71
2022/02/10 14:28:08;;;;;;;10.37;6.67;;;9.10;99.90;;;;;;5076161;28;20237;-71
2022/02/10 14:30:35;;;;;;;10.50;7.50;;;9.00;99.90;;;;;;5070229;28;20632;-70
2022/02/10 14:33:03;;;;;;;9.27;6.40;;;9.00;99.90;;;;;;5076296;28;20300;-70
2022/02/10 14:35:35;;;;;;;8.53;5.73;;;9.00;99.90;;;;;;5080555;28;20805;-70
2022/02/10 14:38:18;;;;;;;7.07;5.30;;;9.00;99.90;;;;;;5072573;28;20236;-71
2022/02/10 14:41:09;;;;;;;7.83;5.63;;;9.00;99.90;;;;;;5069688;28;20217;-71
2022/02/10 15:36:16;;;;;;;12.87;9.27;;;9.00;99.90;;;;;;5073112;28;20201;-72
2022/02/10 15:50:10;;;;;;;11.50;8.67;;;8.80;99.90;;;;;;5061300;28;20204;-73
2022/02/10 15:53:04;;;;;;;10.27;7.17;;;8.80;99.90;;;;;;5073282;28;20239;-72
2022/02/10 16:15:05;;;;;;;11.80;6.93;;;8.70;99.90;;;;;;5077559;28;20354;-73
2022/02/10 16:17:31;;;;;;;9.67;7.30;;;8.70;99.90;;;;;;5081297;28;20839;-71
2022/02/10 16:20:06;;;;;;;9.10;7.23;;;8.70;99.90;;;;;;5074410;28;20233;-74
2022/02/10 16:22:37;;;;;;;10.10;7.07;;;8.70;99.90;;;;;;5071683;28;20646;-73
2022/02/10 16:25:07;;;;;;;9.67;7.30;;;8.70;99.90;;;;;;5072510;28;20205;-72
2022/02/10 16:27:37;;;;;;;11.97;8.17;;;8.70;99.90;;;;;;5076581;28;20240;-72
2022/02/10 16:30:12;;;;;;;9.43;7.60;;;8.70;99.90;;;;;;5082876;28;20201;-72
2022/02/10 16:32:40;;;;;;;12.07;7.77;;;8.70;99.90;;;;;;5065178;28;20723;-73
2022/02/10 16:35:09;;;;;;;13.23;7.53;;;8.70;99.90;;;;;;5079819;28;20237;-72
2022/02/10 16:37:36;;;;;;;9.07;7.47;;;8.60;99.90;;;;;;5073981;28;21613;-72
2022/02/10 16:40:06;;;;;;;11.70;7.80;;;8.60;99.90;;;;;;5075659;28;20601;-70
2022/02/10 16:42:33;;;;;;;10.70;7.47;;;8.70;99.90;;;;;;5078849;28;20201;-73
2022/02/10 16:45:01;;;;;;;11.57;8.13;;;8.60;99.90;;;;;;5078813;28;20197;-72
2022/02/10 16:47:28;;;;;;;9.90;7.90;;;8.70;99.90;;;;;;5077354;28;20689;-72
2022/02/10 16:49:55;;;;;;;12.33;8.80;;;8.70;99.90;;;;;;5063819;28;20254;-71
2022/02/10 16:52:25;;;;;;;12.23;8.37;;;8.70;99.90;;;;;;5072736;28;20676;-71
2022/02/10 16:55:04;;;;;;;10.63;8.30;;;8.70;99.90;;;;;;5072737;28;20635;-70
2022/02/10 16:57:39;;;;;;;12.00;8.67;;;8.70;99.90;;;;;;5077239;28;20275;-71
2022/02/10 17:00:21;;;;;;;15.73;8.97;;;8.70;99.90;;;;;;5072443;28;20208;-71
2022/02/10 17:03:06;;;;;;;11.53;8.37;;;8.70;99.90;;;;;;5081376;28;20285;-71
2022/02/10 17:05:49;;;;;;;12.23;8.00;;;8.70;99.90;;;;;;5075295;28;20519;-71
2022/02/10 17:14:15;;;;;;;12.70;8.13;;;8.60;99.90;;;;;;5079658;28;20204;-72
2022/02/10 17:19:31;;;;;;;15.53;9.20;;;8.70;99.90;;;;;;5072164;28;20205;-71
2022/02/10 17:27:30;;;;;;;12.53;8.87;;;8.70;99.90;;;;;;5062772;28;20254;-72
2022/02/10 17:30:35;;;;;;;11.83;9.03;;;8.70;99.90;;;;;;5073412;28;20213;-70
2022/02/10 17:33:09;;;;;;;12.00;9.03;;;8.70;99.90;;;;;;5059755;28;20263;-70
2022/02/10 17:46:57;;;;;;;13.07;9.50;;;8.70;99.90;;;;;;5064961;28;20202;-71
2022/02/10 17:52:14;;;;;;;14.43;9.57;;;8.70;99.90;;;;;;5064810;28;20540;-71
2022/02/10 17:54:43;;;;;;;15.47;9.43;;;8.70;99.90;;;;;;5069384;28;20205;-73
2022/02/10 17:57:10;;;;;;;15.43;10.50;;;8.70;99.90;;;;;;5069015;28;20213;-70
2022/02/10 17:59:37;;;;;;;15.33;10.30;;;8.70;99.90;;;;;;5078354;28;20209;-72
2022/02/10 18:02:04;;;;;;;14.27;9.03;;;8.70;99.90;;;;;;5074887;28;20225;-72
2022/02/10 18:04:33;;;;;;;12.23;9.23;;;8.70;99.90;;;;;;5073310;28;20297;-70
2022/02/10 18:07:00;;;;;;;13.33;9.50;;;8.70;99.90;;;;;;5066230;28;20224;-72
2022/02/10 18:15:12;;;;;;;15.30;9.43;;;8.60;99.90;;;;;;5073603;28;20650;-71
2022/02/10 18:17:44;;;;;;;13.47;9.80;;;8.60;99.90;;;;;;5070997;28;20998;-71
2022/02/10 18:20:16;;;;;;;16.43;10.37;;;8.60;99.90;;;;;;5079244;28;20202;-73
2022/02/10 18:22:57;;;;;;;14.20;9.33;;;8.60;99.90;;;;;;5070623;28;20206;-72
2022/02/10 18:25:42;;;;;;;13.23;9.57;;;8.60;99.90;;;;;;5081420;28;20243;-71
2022/02/10 19:07:15;;;;;;;15.40;10.13;;;8.50;99.90;;;;;;5079119;28;20200;-72
2022/02/10 19:09:46;;;;;;;13.90;9.33;;;8.50;99.90;;;;;;5072390;28;20233;-73
2022/02/10 19:12:17;;;;;;;12.07;9.17;;;8.70;99.90;;;;;;5076264;28;20197;-73
2022/02/10 19:14:52;;;;;;;14.30;9.53;;;8.60;99.90;;;;;;5077478;28;20209;-73
2022/02/10 19:17:19;;;;;;;13.63;8.90;;;8.70;99.90;;;;;;5072589;28;20205;-72
2022/02/10 19:19:47;;;;;;;13.70;8.67;;;8.60;99.90;;;;;;5074984;28;20668;-73
2022/02/10 19:22:14;;;;;;;12.80;8.47;;;8.70;99.90;;;;;;5074262;28;20240;-73
2022/02/10 19:24:41;;;;;;;11.53;8.23;;;8.70;99.90;;;;;;5076671;28;20205;-73
2022/02/10 19:27:09;;;;;;;13.90;9.47;;;8.70;99.90;;;;;;5078597;28;20233;-74
2022/02/10 19:29:38;;;;;;;13.43;8.37;;;8.70;99.90;;;;;;5065669;28;20205;-72
2022/02/10 19:32:06;;;;;;;11.77;8.03;;;8.80;99.90;;;;;;5066574;28;20203;-73
2022/02/10 19:34:35;;;;;;;11.83;8.10;;;8.80;99.90;;;;;;5074424;28;20254;-72
2022/02/10 19:37:02;;;;;;;11.87;7.90;;;8.90;99.90;;;;;;5076586;28;20239;-73
2022/02/10 19:39:29;;;;;;;11.10;8.10;;;8.90;99.90;;;;;;5076648;28;20223;-73
2022/02/10 19:41:56;;;;;;;10.63;7.40;;;8.90;99.90;;;;;;5079661;28;20271;-73
2022/02/10 19:44:26;;;;;;;10.17;6.90;;;9.00;99.90;;;;;;5080880;28;20220;-72
2022/02/10 19:46:58;;;;;;;10.37;7.57;;;9.00;99.90;;;;;;5071633;28;20213;-72
2022/02/10 19:49:25;;;;;;;15.37;8.10;;;9.00;99.90;;;;;;5075721;28;20208;-73
2022/02/10 19:51:53;;;;;;;11.97;8.13;;;9.00;99.90;;;;;;5072632;28;20205;-72
2022/02/10 19:54:25;;;;;;;14.03;8.60;;;9.10;99.90;;;;;;5074717;28;20213;-73
2022/02/10 19:56:54;;;;;;;12.40;8.47;;;9.10;99.90;;;;;;5080855;28;20208;-73
2022/02/10 19:59:24;;;;;;;13.13;8.47;;;9.10;99.90;;;;;;5079691;28;20229;-72
2022/02/10 20:01:53;;;;;;;14.70;8.70;;;9.20;99.90;;;;;;5072609;28;20252;-72
2022/02/10 20:04:23;;;;;;;12.47;8.57;;;9.20;99.90;;;;;;5074577;28;20213;-72
2022/02/10 20:06:50;;;;;;;13.93;8.63;;;9.20;99.90;;;;;;5064365;28;20224;-72
2022/02/10 20:09:18;;;;;;;11.30;8.50;;;9.20;99.90;;;;;;5067923;28;20201;-72
2022/02/10 20:11:47;;;;;;;11.77;8.60;;;9.20;99.90;;;;;;5076909;28;20659;-71
2022/02/10 20:14:14;;;;;;;12.80;8.67;;;9.30;99.90;;;;;;5066361;28;20656;-71
2022/02/10 20:16:41;;;;;;;13.57;8.67;;;9.20;99.90;;;;;;5076637;28;20240;-72
2022/02/10 20:19:09;;;;;;;12.73;8.87;;;9.20;99.90;;;;;;5078093;28;20204;-72
2022/02/10 20:21:36;;;;;;;14.07;8.97;;;9.20;99.90;;;;;;5073732;28;20225;-70
2022/02/10 20:24:04;;;;;;;15.60;9.47;;;9.20;99.90;;;;;;5072365;28;20635;-71
2022/02/10 20:26:33;;;;;;;11.40;8.03;;;9.20;99.90;;;;;;5076835;28;20202;-72
2022/02/10 20:29:00;;;;;;;12.77;9.00;;;9.20;99.90;;;;;;5087635;28;20264;-71
2022/02/10 20:31:29;;;;;;;12.97;8.63;;;9.20;99.90;;;;;;5067533;28;20232;-71
2022/02/10 20:33:56;;;;;;;12.77;8.60;;;9.20;99.90;;;;;;5074568;28;20205;-70
2022/02/10 20:36:24;;;;;;;11.87;8.47;;;9.20;99.90;;;;;;5075613;28;20724;-71
2022/02/10 20:38:56;;;;;;;11.03;8.47;;;9.20;99.90;;;;;;5073292;28;20209;-71
2022/02/10 20:41:25;;;;;;;14.03;8.43;;;9.20;99.90;;;;;;5080920;28;20220;-73
2022/02/10 20:43:55;;;;;;;12.70;8.93;;;9.20;99.90;;;;;;5079623;28;20211;-73
2022/02/10 20:46:24;;;;;;;14.87;8.73;;;9.20;99.90;;;;;;5080812;28;20607;-72
2022/02/10 20:48:51;;;;;;;13.23;8.77;;;9.20;99.90;;;;;;5076553;28;20724;-73
2022/02/10 20:51:18;;;;;;;13.87;8.33;;;9.10;99.90;;;;;;5074338;28;20241;-72
2022/02/10 20:53:48;;;;;;;11.97;7.97;;;9.10;99.90;;;;;;5073619;28;20208;-71
2022/02/10 20:56:18;;;;;;;12.27;6.80;;;9.10;99.90;;;;;;5079177;28;20200;-70
2022/02/10 20:58:50;;;;;;;11.10;7.47;;;9.10;99.90;;;;;;5078127;28;20205;-70
2022/02/10 21:01:17;;;;;;;8.57;6.40;;;9.00;99.90;;;;;;5072516;28;20602;-70
2022/02/10 21:03:44;;;;;;;9.00;6.50;;;9.00;99.90;;;;;;5074077;28;20198;-70
2022/02/10 21:06:21;;;;;;;8.63;6.13;;;9.00;99.90;;;;;;5067767;28;20201;-71
2022/02/10 21:08:54;;;;;;;7.73;6.23;;;9.00;99.90;;;;;;5070421;28;20287;-70
2022/02/10 21:11:24;;;;;;;7.70;5.50;;;9.00;99.90;;;;;;5066032;28;20202;-70
2022/02/10 21:13:52;;;;;;;8.50;5.80;;;9.00;99.90;;;;;;5072139;28;20209;-69
2022/02/10 21:16:19;;;;;;;7.50;5.63;;;8.90;99.90;;;;;;5083848;28;20291;-70
2022/02/10 21:18:46;;;;;;;8.23;5.73;;;8.90;99.90;;;;;;5077748;28;20228;-71
2022/02/10 21:21:16;;;;;;;9.10;5.77;;;8.90;99.90;;;;;;5082387;28;20232;-71
2022/02/10 21:23:50;;;;;;;9.27;6.60;;;8.80;99.90;;;;;;5069929;28;20578;-71
2022/02/10 21:26:20;;;;;;;9.63;6.77;;;8.80;99.90;;;;;;5082709;28;20196;-70
2022/02/10 21:28:48;;;;;;;7.83;6.37;;;8.80;99.90;;;;;;5077259;28;20239;-71
2022/02/10 21:31:15;;;;;;;13.57;9.27;;;8.80;99.90;;;;;;5087383;28;20236;-70
2022/02/10 21:33:49;;;;;;;11.97;8.20;;;8.80;99.90;;;;;;5074923;28;20662;-71
2022/02/10 21:36:44;;;;;;;12.17;8.40;;;8.70;99.90;;;;;;5075527;28;20301;-71
2022/02/10 21:39:26;;;;;;;10.70;8.20;;;8.70;99.90;;;;;;5070316;28;20209;-70
2022/02/10 21:56:18;;;;;;;15.00;11.10;;;8.50;99.90;;;;;;5072102;28;20277;-69
2022/02/10 22:09:53;;;;;;;14.37;11.13;;;8.30;99.90;;;;;;5066534;28;20185;-70
2022/02/10 22:20:43;;;;;;;14.37;10.70;;;8.20;99.90;;;;;;5071513;28;20235;-71
2022/02/10 22:23:17;;;;;;;13.20;8.90;;;8.20;99.90;;;;;;5074718;28;20307;-71
2022/02/10 22:25:44;;;;;;;12.87;8.50;;;8.10;99.90;;;;;;5061743;28;20269;-71
2022/02/10 22:28:25;;;;;;;9.80;7.50;;;8.10;99.90;;;;;;5074314;28;20209;-71
2022/02/10 22:31:05;;;;;;;11.63;8.10;;;8.00;99.90;;;;;;5069163;28;20232;-71
2022/02/10 22:33:46;;;;;;;11.80;8.73;;;8.00;99.90;;;;;;5071343;28;20235;-71
2022/02/10 22:36:15;;;;;;;10.13;8.00;;;7.90;99.90;;;;;;5074108;28;20232;-71
2022/02/10 22:38:42;;;;;;;11.40;7.80;;;7.90;99.90;;;;;;5062245;28;20220;-70
2022/02/10 22:41:11;;;;;;;9.10;7.70;;;8.00;99.90;;;;;;5071450;28;20233;-70
2022/02/10 22:43:38;;;;;;;8.67;6.90;;;7.80;99.90;;;;;;5078286;28;20228;-71
2022/02/10 22:46:07;;;;;;;8.17;6.97;;;7.70;99.90;;;;;;5073728;28;20251;-70
2022/02/10 22:48:34;;;;;;;8.33;6.30;;;7.70;99.90;;;;;;5074500;28;20201;-71
2022/02/10 22:51:02;;;;;;;7.87;5.93;;;7.70;99.90;;;;;;5071223;28;20197;-72
2022/02/10 22:53:29;;;;;;;7.13;5.53;;;7.60;99.90;;;;;;5081041;28;20207;-69
2022/02/10 22:55:56;;;;;;;6.27;4.57;;;7.60;99.90;;;;;;5085843;28;20219;-70
2022/02/10 22:58:23;;;;;;;6.23;4.83;;;7.50;99.90;;;;;;5091135;28;20256;-70
2022/02/10 23:00:50;;;;;;;4.80;4.00;;;7.50;99.90;;;;;;5077230;28;20209;-70
2022/02/10 23:03:19;;;;;;;4.50;3.73;;;7.40;99.90;;;;;;5070511;28;20229;-71
2022/02/10 23:05:47;;;;;;;5.73;3.73;;;7.30;99.90;;;;;;5081936;28;20232;-71
2022/02/10 23:08:14;;;;;;;5.03;3.77;;;7.30;99.90;;;;;;5081739;28;20212;-71
2022/02/10 23:10:47;;;;;;;5.10;3.33;;;7.30;99.90;;;;;;5071238;28;20213;-71
2022/02/10 23:13:15;;;;;;;5.27;3.53;;;7.80;99.90;;;;;;5075342;28;20196;-70
2022/02/10 23:15:42;;;;;;;4.70;3.70;;;7.20;99.90;;;;;;5072467;28;20674;-71
2022/02/10 23:18:11;;;;;;;4.30;3.33;;;7.20;99.90;;;;;;5085418;28;20219;-70
2022/02/10 23:20:40;;;;;;;4.87;3.97;;;7.20;99.90;;;;;;5087393;28;20228;-72
2022/02/10 23:23:08;;;;;;;4.07;3.53;;;7.10;99.90;;;;;;5086203;28;20307;-70
2022/02/10 23:25:36;;;;;;;5.13;3.90;;;7.10;99.90;;;;;;5077218;28;20212;-71
2022/02/10 23:28:06;;;;;;;6.33;4.20;;;7.10;99.90;;;;;;5067937;28;20571;-70
2022/02/10 23:30:33;;;;;;;5.37;3.87;;;7.00;99.90;;;;;;5066850;28;20377;-70
2022/02/10 23:33:06;;;;;;;5.13;3.73;;;7.00;99.90;;;;;;5067663;28;20202;-68
2022/02/10 23:38:21;;;;;;;4.60;3.90;;;6.90;99.90;;;;;;5067798;28;20205;-69
2022/02/10 23:41:13;;;;;;;5.30;4.00;;;6.90;99.90;;;;;;5067253;28;20209;-69
2022/02/10 23:43:39;;;;;;;4.67;4.00;;;6.80;99.90;;;;;;5067207;28;20685;-67
2022/02/10 23:46:06;;;;;;;5.40;3.87;;;6.80;99.90;;;;;;5073004;28;20234;-69
2022/02/10 23:48:33;;;;;;;6.57;4.73;;;6.70;99.90;;;;;;5067991;28;20291;-68
2022/02/10 23:51:01;;;;;;;5.53;4.47;;;6.70;99.90;;;;;;5067714;28;20689;-69
2022/02/10 23:53:30;;;;;;;7.53;4.63;;;6.70;99.90;;;;;;5069524;28;20687;-68
2022/02/10 23:55:58;;;;;;;6.23;4.53;;;6.70;99.90;;;;;;5063076;28;20210;-69
2022/02/10 23:58:33;;;;;;;6.60;5.10;;;6.70;99.90;;;;;;5072750;28;20210;-69
